createdAt,value
2023-04-06T00:14:31.381Z,62.56
2023-04-06T00:15:31.352Z,62.46
2023-04-06T00:16:31.417Z,62.66
2023-04-06T00:17:31.395Z,62.46
2023-04-06T00:18:31.363Z,62.08
2023-04-06T00:19:31.363Z,62.75
2023-04-06T00:20:31.371Z,62.75
2023-04-06T00:21:31.404Z,62.46
2023-04-06T00:22:31.377Z,62.46
2023-04-06T00:23:31.377Z,62.18
2023-04-06T00:24:31.374Z,61.90
2023-04-06T00:25:31.385Z,61.80
2023-04-06T00:26:31.383Z,62.27
2023-04-06T00:27:31.397Z,62.08
2023-04-06T00:29:31.403Z,62.56
2023-04-06T00:37:03.947Z,62.85
2023-04-06T00:38:03.925Z,62.85
2023-04-06T00:39:06.722Z,62.66
2023-04-06T01:03:34.463Z,63.01
2023-04-06T01:17:20.095Z,65.06
2023-04-06T01:18:20.104Z,64.87
2023-04-06T01:19:20.123Z,65.44
2023-04-06T01:20:20.096Z,65.28
2023-04-06T01:21:20.098Z,65.44
2023-04-06T01:22:20.104Z,65.25
2023-04-06T01:23:20.106Z,65.53
2023-04-06T01:24:20.114Z,65.82
2023-04-06T01:25:20.132Z,65.82
2023-04-06T01:26:20.147Z,66.01
2023-04-06T01:27:20.114Z,65.82
2023-04-06T01:28:20.116Z,66.29
2023-04-06T01:29:20.116Z,66.01
2023-04-06T01:30:20.124Z,66.20
2023-04-06T01:31:20.152Z,66.10
2023-04-06T01:32:20.128Z,66.01
2023-04-06T01:33:20.126Z,66.77
2023-04-06T01:34:20.132Z,66.86
2023-04-06T01:35:20.190Z,66.86
2023-04-06T02:18:43.766Z,70.05
2023-04-06T02:19:43.744Z,69.96
2023-04-06T02:20:43.745Z,69.86
2023-04-06T02:21:43.750Z,69.57
2023-04-06T02:22:43.753Z,69.57
2023-04-06T02:23:44.463Z,69.77
2023-04-06T03:00:31.018Z,72.04
2023-04-06T03:01:31.028Z,72.14
2023-04-06T03:21:39.334Z,72.89
2023-04-06T03:22:39.306Z,72.61
2023-04-06T03:23:39.316Z,72.52
2023-04-06T03:24:39.313Z,72.42
2023-04-06T03:30:28.588Z,72.89
2023-04-06T03:31:28.677Z,72.71
2023-04-06T03:32:28.611Z,72.71
2023-04-06T03:48:29.830Z,73.37
2023-04-06T03:50:32.035Z,73.37
2023-04-06T03:54:50.358Z,74.22
2023-04-06T03:55:50.405Z,74.03
2023-04-06T03:56:50.353Z,74.13
2023-04-06T03:57:50.352Z,74.22
2023-04-06T03:58:50.395Z,74.22
2023-04-06T03:59:50.351Z,74.13
2023-04-06T04:00:50.360Z,74.03
2023-04-06T04:04:16.219Z,74.22
2023-04-06T04:05:19.889Z,74.41
2023-04-06T04:06:16.197Z,74.03
2023-04-06T04:07:16.200Z,74.22
2023-04-06T04:08:16.212Z,74.32
2023-04-06T04:09:16.267Z,74.03
2023-04-06T04:13:29.417Z,74.69
2023-04-06T04:14:29.411Z,74.51
2023-04-06T04:15:29.413Z,74.60
2023-04-06T04:16:29.511Z,74.41
2023-04-06T04:17:29.428Z,74.60
2023-04-06T04:18:29.422Z,74.98
2023-04-06T04:19:29.444Z,74.60
2023-04-06T04:20:29.418Z,74.98
2023-04-06T04:21:29.423Z,74.98
2023-04-06T04:22:29.428Z,75.17
2023-04-06T04:23:29.432Z,75.55
2023-04-06T04:24:29.428Z,75.74
2023-04-06T04:25:29.431Z,75.36
2023-04-06T04:26:29.428Z,75.17
2023-04-06T04:27:29.439Z,75.36
2023-04-06T04:28:29.434Z,75.55
2023-04-06T04:29:29.437Z,75.74
2023-04-06T04:30:29.447Z,75.26
2023-04-06T04:31:29.493Z,75.07
2023-04-06T04:32:29.458Z,74.88
2023-04-06T04:33:29.457Z,74.88
2023-04-06T04:34:29.452Z,74.88
2023-04-06T04:35:29.500Z,74.88
2023-04-06T04:36:29.454Z,74.88
2023-04-06T04:37:29.458Z,75.17
2023-04-06T04:38:29.459Z,74.88
2023-04-06T04:39:29.483Z,74.88
2023-04-06T04:40:29.464Z,74.88
2023-04-06T04:41:29.466Z,75.07
2023-04-06T04:42:29.465Z,74.98
2023-04-06T04:43:30.753Z,75.07
2023-04-06T04:44:29.469Z,75.17
2023-04-06T04:45:29.480Z,75.17
2023-04-06T04:46:29.504Z,75.17
2023-04-06T04:47:29.500Z,75.26
2023-04-06T04:48:29.477Z,75.45
2023-04-06T04:49:29.480Z,75.17
2023-04-06T04:50:29.496Z,74.98
2023-04-06T04:51:29.509Z,75.45
2023-04-06T04:52:29.485Z,74.98
2023-04-06T04:53:29.488Z,75.26
2023-04-06T04:54:29.493Z,75.55
2023-04-06T04:55:29.489Z,75.55
2023-04-06T04:56:29.499Z,75.45
2023-04-06T04:57:29.498Z,75.26
2023-04-06T04:58:29.496Z,75.55
2023-04-06T04:59:29.511Z,75.64
2023-04-06T05:00:29.509Z,75.55
2023-04-06T05:01:30.294Z,75.55
2023-04-06T05:02:29.627Z,75.74
2023-04-06T05:03:29.574Z,75.36
2023-04-06T05:04:29.504Z,75.45
2023-04-06T05:05:29.510Z,75.26
2023-04-06T05:06:29.509Z,75.45
2023-04-06T05:07:29.533Z,75.45
2023-04-06T05:08:29.513Z,75.55
2023-04-06T05:09:29.516Z,75.55
2023-04-06T05:10:29.522Z,75.64
2023-04-06T05:11:29.524Z,75.07
2023-04-06T05:12:29.518Z,75.45
2023-04-06T05:13:29.522Z,75.45
2023-04-06T05:14:29.529Z,75.17
2023-04-06T05:15:29.553Z,75.26
2023-04-06T05:16:29.526Z,75.45
2023-04-06T05:17:29.550Z,75.36
2023-04-06T05:18:29.532Z,75.45
2023-04-06T05:19:29.532Z,75.07
2023-04-06T05:20:29.532Z,75.17
2023-04-06T05:21:29.533Z,75.17
2023-04-06T05:22:29.537Z,74.98
2023-04-06T05:23:29.560Z,75.07
2023-04-06T05:24:29.546Z,75.17
2023-04-06T05:25:29.569Z,75.17
2023-04-06T05:26:29.545Z,75.64
2023-04-06T05:27:29.546Z,75.55
2023-04-06T05:28:29.546Z,75.36
2023-04-06T05:29:29.549Z,75.45
2023-04-06T05:30:29.548Z,75.45
2023-04-06T05:31:29.579Z,75.64
2023-04-06T05:32:29.591Z,75.55
2023-04-06T05:33:29.556Z,75.74
2023-04-06T05:34:29.566Z,75.26
2023-04-06T05:35:29.591Z,75.36
2023-04-06T05:36:29.562Z,75.17
2023-04-06T05:37:29.563Z,74.88
2023-04-06T05:38:32.184Z,75.07
2023-04-06T05:39:29.585Z,75.07
2023-04-06T05:40:29.561Z,74.69
2023-04-06T05:41:29.561Z,74.51
2023-04-06T05:42:29.563Z,74.41
2023-04-06T05:43:29.565Z,74.51
2023-04-06T05:44:29.565Z,74.98
2023-04-06T05:45:29.565Z,75.26
2023-04-06T05:46:29.674Z,75.26
2023-04-06T05:47:29.591Z,75.36
2023-04-06T05:48:29.570Z,75.36
2023-04-06T05:49:29.585Z,75.45
2023-04-06T05:50:29.572Z,75.36
2023-04-06T05:51:29.574Z,75.45
2023-04-06T05:52:29.581Z,75.55
2023-04-06T05:53:29.576Z,75.55
2023-04-06T05:54:29.579Z,75.36
2023-04-06T05:55:29.606Z,75.17
2023-04-06T05:56:29.585Z,75.07
2023-04-06T05:57:29.584Z,75.26
2023-04-06T05:58:29.586Z,75.45
2023-04-06T05:59:29.658Z,74.98
2023-04-06T06:00:29.609Z,74.98
2023-04-06T06:01:29.588Z,74.60
2023-04-06T06:02:29.811Z,74.69
2023-04-06T06:03:29.599Z,74.60
2023-04-06T06:04:29.653Z,74.41
2023-04-06T06:05:29.782Z,74.69
2023-04-06T06:06:29.596Z,74.41
2023-04-06T06:07:29.602Z,74.51
2023-04-06T06:08:29.602Z,74.54
2023-04-06T06:09:29.608Z,74.45
2023-04-06T06:10:29.608Z,74.07
2023-04-06T06:13:14.750Z,74.07
2023-04-06T06:14:16.139Z,74.45
2023-04-06T06:17:56.081Z,74.07
2023-04-06T06:19:43.149Z,74.16
2023-04-06T06:20:43.141Z,73.41
2023-04-06T06:21:43.147Z,73.50
2023-04-06T06:22:43.150Z,73.41
2023-04-06T06:23:43.150Z,73.22
2023-04-06T06:24:43.150Z,73.03
2023-04-06T06:25:43.162Z,73.50
2023-04-06T06:26:43.153Z,73.69
2023-04-06T06:27:43.162Z,73.60
2023-04-06T06:28:43.182Z,73.41
2023-04-06T06:29:43.181Z,73.79
2023-04-06T06:30:43.174Z,73.12
2023-04-06T06:31:43.254Z,73.50
2023-04-06T06:32:43.225Z,73.31
2023-04-06T06:33:43.174Z,73.41
2023-04-06T06:34:43.174Z,73.79
2023-04-06T06:36:44.075Z,73.22
2023-04-06T06:37:43.198Z,73.31
2023-04-06T06:38:43.185Z,72.84
2023-04-06T06:39:43.184Z,73.12
2023-04-06T06:40:43.192Z,73.60
2023-04-06T06:41:43.198Z,73.50
2023-04-06T06:42:43.203Z,73.41
2023-04-06T06:43:43.193Z,73.12
2023-04-06T06:44:43.219Z,73.41
2023-04-06T06:45:43.226Z,73.41
2023-04-06T06:46:43.266Z,73.31
2023-04-06T06:47:43.254Z,73.41
2023-04-06T06:48:43.204Z,72.93
2023-04-06T06:49:43.218Z,73.31
2023-04-06T06:50:43.206Z,73.41
2023-04-06T06:51:43.210Z,72.84
2023-04-06T06:52:43.209Z,73.41
2023-04-06T06:53:43.221Z,73.12
2023-04-06T06:54:43.223Z,73.12
2023-04-06T06:55:43.233Z,72.93
2023-04-06T06:56:43.222Z,73.22
2023-04-06T06:57:43.295Z,73.12
2023-04-06T06:58:43.226Z,73.22
2023-04-06T06:59:43.262Z,73.12
2023-04-06T07:00:43.394Z,73.22
2023-04-06T07:01:43.305Z,73.12
2023-04-06T07:02:43.267Z,73.22
2023-04-06T07:03:43.294Z,73.22
2023-04-06T07:04:43.308Z,73.31
2023-04-06T07:05:43.257Z,73.22
2023-04-06T07:06:43.245Z,72.59
2023-04-06T07:07:43.304Z,72.64
2023-04-06T07:08:43.243Z,72.74
2023-04-06T07:09:43.253Z,73.03
2023-04-06T07:10:43.268Z,73.25
2023-04-06T07:11:43.264Z,73.16
2023-04-06T07:12:43.249Z,73.25
2023-04-06T07:13:43.260Z,73.25
2023-04-06T07:14:43.267Z,73.25
2023-04-06T07:15:43.260Z,72.88
2023-04-06T07:16:43.367Z,72.78
2023-04-06T07:17:43.295Z,72.78
2023-04-06T07:18:43.272Z,72.88
2023-04-06T07:19:43.285Z,72.49
2023-04-06T07:20:43.265Z,72.59
2023-04-06T07:21:43.267Z,72.59
2023-04-06T07:22:43.271Z,72.11
2023-04-06T07:23:43.290Z,72.21
2023-04-06T07:24:43.274Z,72.21
2023-04-06T07:26:25.815Z,72.30
2023-04-06T07:27:25.835Z,72.30
2023-04-06T07:28:25.818Z,72.40
2023-04-06T07:29:25.823Z,72.53
2023-04-06T07:30:25.843Z,72.40
2023-04-06T07:31:25.855Z,72.72
2023-04-06T07:32:25.877Z,72.53
2023-04-06T07:33:25.837Z,72.44
2023-04-06T07:34:25.835Z,71.86
2023-04-06T07:35:25.844Z,72.44
2023-04-06T07:36:25.835Z,71.67
2023-04-06T07:37:25.842Z,72.15
2023-04-06T07:38:25.848Z,72.15
2023-04-06T07:39:25.847Z,71.77
2023-04-06T07:40:25.867Z,71.96
2023-04-06T07:41:25.853Z,71.96
2023-04-06T07:42:25.853Z,71.77
2023-04-06T07:43:25.858Z,71.43
2023-04-06T07:44:25.860Z,71.43
2023-04-06T07:45:25.883Z,71.43
2023-04-06T07:46:25.923Z,71.33
2023-04-06T07:47:25.885Z,71.43
2023-04-06T07:48:25.907Z,71.33
2023-04-06T07:49:25.877Z,70.86
2023-04-06T07:50:25.874Z,70.95
2023-04-06T07:51:25.879Z,70.99
2023-04-06T07:52:25.886Z,71.37
2023-04-06T07:53:25.884Z,70.79
2023-04-06T07:54:25.884Z,70.61
2023-04-06T07:55:25.893Z,70.45
2023-04-06T07:56:25.902Z,70.36
2023-04-06T07:57:25.890Z,70.07
2023-04-06T07:58:25.897Z,69.60
2023-04-06T07:59:25.916Z,69.73
2023-04-06T08:00:25.903Z,69.63
2023-04-06T08:01:25.906Z,69.13
2023-04-06T08:02:25.953Z,68.15
2023-04-06T08:03:26.066Z,66.98
2023-04-06T08:04:26.023Z,64.85
2023-04-06T08:05:25.948Z,63.54
2023-04-06T08:06:25.918Z,62.04
2023-04-06T08:07:25.932Z,61.25
2023-04-06T08:08:25.931Z,59.87
2023-04-06T08:09:25.928Z,58.37
2023-04-06T08:10:25.942Z,57.24
2023-04-06T08:11:25.934Z,56.31
2023-04-06T08:12:25.935Z,54.90
2023-04-06T08:13:25.937Z,53.78
2023-04-06T08:14:25.945Z,52.68
2023-04-06T08:15:25.984Z,51.35
2023-04-06T08:16:25.955Z,50.23
2023-04-06T08:17:26.018Z,49.27
2023-04-06T08:18:25.955Z,48.33
2023-04-06T08:19:25.956Z,46.88
2023-04-06T08:20:26.021Z,45.94
2023-04-06T08:21:25.972Z,45.39
2023-04-06T08:22:25.989Z,43.55
2023-04-06T08:23:25.969Z,42.80
2023-04-06T08:24:25.978Z,42.32
2023-04-06T08:25:25.975Z,42.25
2023-04-06T08:26:25.979Z,41.38
2023-04-06T08:27:25.987Z,40.82
2023-04-06T08:28:25.987Z,39.54
2023-04-06T08:29:25.999Z,39.16
2023-04-06T08:30:26.010Z,39.54
2023-04-06T08:31:26.061Z,38.51
2023-04-06T08:32:26.057Z,38.41
2023-04-06T08:33:26.016Z,37.54
2023-04-06T08:34:26.030Z,35.90
2023-04-06T08:35:28.678Z,34.92
2023-04-06T08:36:26.013Z,35.40
2023-04-06T08:37:26.043Z,35.02
2023-04-06T08:38:26.020Z,34.53
2023-04-06T08:39:26.032Z,35.10
2023-04-06T08:40:26.044Z,35.21
2023-04-06T15:43:00.159Z,34.81
2023-04-06T15:44:00.123Z,34.91
2023-04-06T15:45:00.180Z,34.72
2023-04-06T15:46:00.159Z,35.00
2023-04-06T15:47:00.208Z,35.00
2023-04-06T15:48:00.194Z,34.91
2023-04-06T15:49:00.169Z,35.39
2023-04-06T15:50:00.214Z,35.29
2023-04-06T15:51:00.186Z,35.18
2023-04-06T15:52:00.810Z,35.18
2023-04-06T15:53:00.216Z,35.66
2023-04-06T15:54:00.227Z,35.94
2023-04-06T16:35:19.046Z,36.79
2023-04-06T16:36:19.039Z,37.07
2023-04-06T16:37:19.041Z,37.07
2023-04-06T16:38:19.052Z,37.26
2023-04-06T16:39:19.058Z,37.17
2023-04-06T16:40:19.066Z,37.36
2023-04-06T16:41:19.084Z,37.17
2023-04-06T16:42:20.301Z,37.36
2023-04-06T16:43:19.906Z,37.55
2023-04-06T16:44:19.346Z,37.74
2023-04-06T16:45:19.107Z,37.15
2023-04-06T16:46:19.161Z,37.15
2023-04-06T16:47:19.141Z,37.53
2023-04-06T16:48:19.143Z,37.63
2023-04-06T16:49:19.140Z,37.63
2023-04-06T16:50:19.156Z,38.01
2023-04-06T16:51:19.182Z,37.82
2023-04-06T16:52:20.378Z,37.63
2023-04-06T16:54:01.789Z,37.53
2023-04-06T16:55:01.999Z,37.92
2023-04-06T16:57:15.436Z,38.01
2023-04-06T16:58:14.414Z,37.92
2023-04-06T16:59:17.845Z,37.73
2023-04-06T17:01:32.097Z,38.01
2023-04-06T17:02:32.172Z,37.92
2023-04-06T17:03:32.195Z,38.18
2023-04-06T17:09:20.590Z,38.66
2023-04-06T17:10:28.572Z,38.66
2023-04-06T17:11:27.789Z,38.85
2023-04-06T18:06:25.987Z,42.05
2023-04-06T18:07:25.677Z,42.34
2023-04-06T18:08:25.684Z,42.63
